sensor_id;sensor_type;location;lat;lon;timestamp;P1;durP1;ratioP1;P2;durP2;ratioP2
32485;SDS011;18935;52.236;21.134;2022-07-29T00:00:48;9.32;;;4.07;;
32485;SDS011;18935;52.236;21.134;2022-07-29T00:03:14;7.65;;;4.00;;
32485;SDS011;18935;52.236;21.134;2022-07-29T00:05:40;9.43;;;4.32;;
32485;SDS011;18935;52.236;21.134;2022-07-29T00:08:06;9.85;;;4.55;;
32485;SDS011;18935;52.236;21.134;2022-07-29T00:10:33;9.25;;;4.57;;
32485;SDS011;18935;52.236;21.134;2022-07-29T00:12:58;7.22;;;3.95;;
32485;SDS011;18935;52.236;21.134;2022-07-29T00:15:24;9.43;;;4.63;;
32485;SDS011;18935;52.236;21.134;2022-07-29T00:17:49;8.93;;;4.38;;
32485;SDS011;18935;52.236;21.134;2022-07-29T00:20:14;7.75;;;4.05;;
32485;SDS011;18935;52.236;21.134;2022-07-29T00:22:40;13.60;;;4.75;;
32485;SDS011;18935;52.236;21.134;2022-07-29T00:25:06;11.68;;;4.35;;
32485;SDS011;18935;52.236;21.134;2022-07-29T00:27:32;7.00;;;4.45;;
32485;SDS011;18935;52.236;21.134;2022-07-29T00:29:58;7.93;;;3.72;;
32485;SDS011;18935;52.236;21.134;2022-07-29T00:32:23;8.20;;;4.47;;
32485;SDS011;18935;52.236;21.134;2022-07-29T00:34:48;7.13;;;4.00;;
32485;SDS011;18935;52.236;21.134;2022-07-29T00:37:32;5.90;;;3.60;;
32485;SDS011;18935;52.236;21.134;2022-07-29T00:39:57;12.43;;;4.70;;
32485;SDS011;18935;52.236;21.134;2022-07-29T00:42:23;10.83;;;4.20;;
32485;SDS011;18935;52.236;21.134;2022-07-29T00:44:48;8.15;;;4.15;;
32485;SDS011;18935;52.236;21.134;2022-07-29T00:47:13;10.43;;;4.40;;
32485;SDS011;18935;52.236;21.134;2022-07-29T00:49:39;8.23;;;4.20;;
32485;SDS011;18935;52.236;21.134;2022-07-29T00:52:06;9.13;;;3.75;;
32485;SDS011;18935;52.236;21.134;2022-07-29T00:54:33;11.40;;;4.25;;
32485;SDS011;18935;52.236;21.134;2022-07-29T00:56:59;6.28;;;4.10;;
32485;SDS011;18935;52.236;21.134;2022-07-29T00:59:25;11.50;;;4.35;;
32485;SDS011;18935;52.236;21.134;2022-07-29T01:01:52;9.60;;;4.00;;
32485;SDS011;18935;52.236;21.134;2022-07-29T01:04:17;7.57;;;3.53;;
32485;SDS011;18935;52.236;21.134;2022-07-29T01:06:42;11.35;;;4.50;;
32485;SDS011;18935;52.236;21.134;2022-07-29T01:09:09;7.55;;;4.00;;
32485;SDS011;18935;52.236;21.134;2022-07-29T01:11:35;10.82;;;3.83;;
32485;SDS011;18935;52.236;21.134;2022-07-29T01:14:01;10.07;;;4.15;;
32485;SDS011;18935;52.236;21.134;2022-07-29T01:16:30;12.35;;;4.53;;
32485;SDS011;18935;52.236;21.134;2022-07-29T01:19:00;8.25;;;4.18;;
32485;SDS011;18935;52.236;21.134;2022-07-29T01:21:43;7.93;;;3.63;;
32485;SDS011;18935;52.236;21.134;2022-07-29T01:29:57;12.30;;;3.85;;
32485;SDS011;18935;52.236;21.134;2022-07-29T01:32:26;10.45;;;4.80;;
32485;SDS011;18935;52.236;21.134;2022-07-29T01:34:54;7.75;;;3.92;;
32485;SDS011;18935;52.236;21.134;2022-07-29T01:40:36;6.68;;;3.88;;
32485;SDS011;18935;52.236;21.134;2022-07-29T01:43:17;12.30;;;4.20;;
32485;SDS011;18935;52.236;21.134;2022-07-29T01:45:50;9.73;;;4.20;;
32485;SDS011;18935;52.236;21.134;2022-07-29T01:51:05;9.88;;;4.30;;
32485;SDS011;18935;52.236;21.134;2022-07-29T01:56:31;6.78;;;3.85;;
32485;SDS011;18935;52.236;21.134;2022-07-29T01:58:59;10.88;;;4.45;;
32485;SDS011;18935;52.236;21.134;2022-07-29T02:01:26;10.18;;;4.75;;
32485;SDS011;18935;52.236;21.134;2022-07-29T02:03:54;7.82;;;4.03;;
32485;SDS011;18935;52.236;21.134;2022-07-29T02:06:21;10.52;;;4.10;;
32485;SDS011;18935;52.236;21.134;2022-07-29T02:08:48;8.18;;;4.00;;
32485;SDS011;18935;52.236;21.134;2022-07-29T02:11:17;6.93;;;4.15;;
32485;SDS011;18935;52.236;21.134;2022-07-29T02:13:42;6.20;;;4.00;;
32485;SDS011;18935;52.236;21.134;2022-07-29T02:16:09;8.07;;;3.85;;
32485;SDS011;18935;52.236;21.134;2022-07-29T02:18:37;10.02;;;4.47;;
32485;SDS011;18935;52.236;21.134;2022-07-29T02:21:06;10.87;;;4.73;;
32485;SDS011;18935;52.236;21.134;2022-07-29T02:23:32;10.73;;;4.95;;
32485;SDS011;18935;52.236;21.134;2022-07-29T02:26:00;9.73;;;4.40;;
32485;SDS011;18935;52.236;21.134;2022-07-29T02:28:27;10.23;;;4.22;;
32485;SDS011;18935;52.236;21.134;2022-07-29T02:30:55;8.80;;;4.88;;
32485;SDS011;18935;52.236;21.134;2022-07-29T02:33:26;7.70;;;3.97;;
32485;SDS011;18935;52.236;21.134;2022-07-29T02:35:52;8.48;;;4.72;;
32485;SDS011;18935;52.236;21.134;2022-07-29T02:38:18;9.27;;;4.30;;
32485;SDS011;18935;52.236;21.134;2022-07-29T02:41:07;8.05;;;4.40;;
32485;SDS011;18935;52.236;21.134;2022-07-29T02:43:36;9.88;;;4.22;;
32485;SDS011;18935;52.236;21.134;2022-07-29T02:46:02;9.70;;;4.50;;
32485;SDS011;18935;52.236;21.134;2022-07-29T02:48:37;8.70;;;4.68;;
32485;SDS011;18935;52.236;21.134;2022-07-29T02:51:53;9.38;;;4.75;;
32485;SDS011;18935;52.236;21.134;2022-07-29T02:53:58;11.10;;;4.25;;
32485;SDS011;18935;52.236;21.134;2022-07-29T02:56:31;11.43;;;4.15;;
32485;SDS011;18935;52.236;21.134;2022-07-29T02:59:03;10.20;;;4.72;;
32485;SDS011;18935;52.236;21.134;2022-07-29T03:01:32;8.57;;;3.95;;
32485;SDS011;18935;52.236;21.134;2022-07-29T03:04:01;9.20;;;4.15;;
32485;SDS011;18935;52.236;21.134;2022-07-29T03:06:29;9.15;;;4.22;;
32485;SDS011;18935;52.236;21.134;2022-07-29T03:08:57;10.85;;;4.78;;
32485;SDS011;18935;52.236;21.134;2022-07-29T03:11:23;9.73;;;4.30;;
32485;SDS011;18935;52.236;21.134;2022-07-29T03:13:51;9.82;;;4.43;;
32485;SDS011;18935;52.236;21.134;2022-07-29T03:16:18;9.18;;;5.15;;
32485;SDS011;18935;52.236;21.134;2022-07-29T03:18:44;9.77;;;4.88;;
32485;SDS011;18935;52.236;21.134;2022-07-29T03:21:10;8.15;;;4.30;;
32485;SDS011;18935;52.236;21.134;2022-07-29T03:23:36;14.13;;;4.70;;
32485;SDS011;18935;52.236;21.134;2022-07-29T03:26:01;8.23;;;4.22;;
32485;SDS011;18935;52.236;21.134;2022-07-29T03:28:27;7.60;;;4.78;;
32485;SDS011;18935;52.236;21.134;2022-07-29T03:30:52;10.57;;;4.47;;
32485;SDS011;18935;52.236;21.134;2022-07-29T03:33:18;8.75;;;3.78;;
32485;SDS011;18935;52.236;21.134;2022-07-29T03:35:43;13.60;;;6.47;;
32485;SDS011;18935;52.236;21.134;2022-07-29T03:38:08;11.63;;;6.93;;
32485;SDS011;18935;52.236;21.134;2022-07-29T03:40:35;9.55;;;4.68;;
32485;SDS011;18935;52.236;21.134;2022-07-29T03:43:05;8.63;;;4.70;;
32485;SDS011;18935;52.236;21.134;2022-07-29T03:45:34;8.80;;;4.63;;
32485;SDS011;18935;52.236;21.134;2022-07-29T03:48:02;8.07;;;5.03;;
32485;SDS011;18935;52.236;21.134;2022-07-29T03:50:32;8.40;;;4.82;;
32485;SDS011;18935;52.236;21.134;2022-07-29T03:53:01;6.20;;;4.00;;
32485;SDS011;18935;52.236;21.134;2022-07-29T03:55:28;10.07;;;4.18;;
32485;SDS011;18935;52.236;21.134;2022-07-29T03:57:56;6.70;;;3.80;;
32485;SDS011;18935;52.236;21.134;2022-07-29T04:00:23;6.28;;;3.30;;
32485;SDS011;18935;52.236;21.134;2022-07-29T04:02:50;5.10;;;3.60;;
32485;SDS011;18935;52.236;21.134;2022-07-29T04:05:16;8.02;;;3.72;;
32485;SDS011;18935;52.236;21.134;2022-07-29T04:07:46;6.72;;;3.80;;
32485;SDS011;18935;52.236;21.134;2022-07-29T04:10:11;7.72;;;3.53;;
32485;SDS011;18935;52.236;21.134;2022-07-29T04:12:37;9.13;;;3.78;;
32485;SDS011;18935;52.236;21.134;2022-07-29T04:15:03;5.13;;;3.30;;
32485;SDS011;18935;52.236;21.134;2022-07-29T04:17:29;9.25;;;3.38;;
32485;SDS011;18935;52.236;21.134;2022-07-29T04:19:54;7.10;;;3.00;;
32485;SDS011;18935;52.236;21.134;2022-07-29T04:22:19;5.13;;;3.20;;
32485;SDS011;18935;52.236;21.134;2022-07-29T04:24:44;4.80;;;2.83;;
32485;SDS011;18935;52.236;21.134;2022-07-29T04:27:10;4.82;;;3.10;;
32485;SDS011;18935;52.236;21.134;2022-07-29T04:29:35;6.97;;;2.70;;
32485;SDS011;18935;52.236;21.134;2022-07-29T04:32:00;6.93;;;2.80;;
32485;SDS011;18935;52.236;21.134;2022-07-29T04:34:26;4.55;;;2.70;;
32485;SDS011;18935;52.236;21.134;2022-07-29T04:36:51;5.20;;;2.60;;
32485;SDS011;18935;52.236;21.134;2022-07-29T04:39:16;3.00;;;2.60;;
32485;SDS011;18935;52.236;21.134;2022-07-29T04:41:43;5.88;;;2.50;;
32485;SDS011;18935;52.236;21.134;2022-07-29T04:44:08;4.28;;;2.33;;
32485;SDS011;18935;52.236;21.134;2022-07-29T04:46:33;7.30;;;2.50;;
32485;SDS011;18935;52.236;21.134;2022-07-29T04:48:59;3.58;;;2.13;;
32485;SDS011;18935;52.236;21.134;2022-07-29T04:51:24;4.83;;;2.20;;
32485;SDS011;18935;52.236;21.134;2022-07-29T04:53:50;3.55;;;1.95;;
32485;SDS011;18935;52.236;21.134;2022-07-29T04:56:15;8.03;;;2.17;;
32485;SDS011;18935;52.236;21.134;2022-07-29T04:58:40;4.90;;;2.20;;
32485;SDS011;18935;52.236;21.134;2022-07-29T05:01:05;2.80;;;1.83;;
32485;SDS011;18935;52.236;21.134;2022-07-29T05:03:31;3.67;;;1.90;;
32485;SDS011;18935;52.236;21.134;2022-07-29T05:05:56;3.63;;;2.17;;
32485;SDS011;18935;52.236;21.134;2022-07-29T05:08:21;8.70;;;2.20;;
32485;SDS011;18935;52.236;21.134;2022-07-29T05:10:47;4.50;;;2.08;;
32485;SDS011;18935;52.236;21.134;2022-07-29T05:13:12;6.13;;;1.80;;
32485;SDS011;18935;52.236;21.134;2022-07-29T05:15:38;3.25;;;1.73;;
32485;SDS011;18935;52.236;21.134;2022-07-29T05:18:03;5.50;;;1.90;;
32485;SDS011;18935;52.236;21.134;2022-07-29T05:20:29;3.25;;;1.75;;
32485;SDS011;18935;52.236;21.134;2022-07-29T05:22:56;4.25;;;1.73;;
32485;SDS011;18935;52.236;21.134;2022-07-29T05:25:22;4.68;;;1.42;;
32485;SDS011;18935;52.236;21.134;2022-07-29T05:27:48;3.55;;;1.70;;
32485;SDS011;18935;52.236;21.134;2022-07-29T05:30:13;4.55;;;1.67;;
32485;SDS011;18935;52.236;21.134;2022-07-29T05:32:39;4.32;;;1.77;;
32485;SDS011;18935;52.236;21.134;2022-07-29T05:35:04;5.70;;;1.60;;
32485;SDS011;18935;52.236;21.134;2022-07-29T05:37:30;3.25;;;1.65;;
32485;SDS011;18935;52.236;21.134;2022-07-29T05:39:55;2.92;;;1.30;;
32485;SDS011;18935;52.236;21.134;2022-07-29T05:42:21;5.07;;;2.07;;
32485;SDS011;18935;52.236;21.134;2022-07-29T05:44:46;4.25;;;1.73;;
32485;SDS011;18935;52.236;21.134;2022-07-29T05:47:12;5.50;;;1.70;;
32485;SDS011;18935;52.236;21.134;2022-07-29T05:49:37;5.13;;;1.55;;
32485;SDS011;18935;52.236;21.134;2022-07-29T05:52:03;3.03;;;1.08;;
32485;SDS011;18935;52.236;21.134;2022-07-29T05:54:31;3.22;;;1.15;;
32485;SDS011;18935;52.236;21.134;2022-07-29T05:56:56;3.97;;;1.50;;
32485;SDS011;18935;52.236;21.134;2022-07-29T05:59:22;4.40;;;1.40;;
32485;SDS011;18935;52.236;21.134;2022-07-29T06:01:47;5.43;;;1.53;;
32485;SDS011;18935;52.236;21.134;2022-07-29T06:04:12;2.15;;;1.25;;
32485;SDS011;18935;52.236;21.134;2022-07-29T06:06:38;2.97;;;1.10;;
32485;SDS011;18935;52.236;21.134;2022-07-29T06:09:03;3.13;;;1.10;;
32485;SDS011;18935;52.236;21.134;2022-07-29T06:11:28;2.53;;;1.07;;
32485;SDS011;18935;52.236;21.134;2022-07-29T06:13:53;3.45;;;1.40;;
32485;SDS011;18935;52.236;21.134;2022-07-29T06:16:19;3.53;;;1.10;;
32485;SDS011;18935;52.236;21.134;2022-07-29T06:18:44;6.63;;;1.30;;
32485;SDS011;18935;52.236;21.134;2022-07-29T06:21:09;3.17;;;1.05;;
32485;SDS011;18935;52.236;21.134;2022-07-29T06:23:38;2.45;;;1.13;;
32485;SDS011;18935;52.236;21.134;2022-07-29T06:26:04;2.50;;;1.10;;
32485;SDS011;18935;52.236;21.134;2022-07-29T06:28:30;4.93;;;1.10;;
32485;SDS011;18935;52.236;21.134;2022-07-29T06:30:56;2.45;;;1.15;;
32485;SDS011;18935;52.236;21.134;2022-07-29T06:33:21;2.43;;;0.93;;
32485;SDS011;18935;52.236;21.134;2022-07-29T06:35:47;2.67;;;1.10;;
32485;SDS011;18935;52.236;21.134;2022-07-29T06:38:12;3.28;;;0.80;;
32485;SDS011;18935;52.236;21.134;2022-07-29T06:40:44;1.40;;;0.75;;
32485;SDS011;18935;52.236;21.134;2022-07-29T06:43:26;3.45;;;1.20;;
32485;SDS011;18935;52.236;21.134;2022-07-29T06:45:57;5.95;;;1.05;;
32485;SDS011;18935;52.236;21.134;2022-07-29T06:50:51;1.85;;;0.90;;
32485;SDS011;18935;52.236;21.134;2022-07-29T06:53:16;3.00;;;0.80;;
32485;SDS011;18935;52.236;21.134;2022-07-29T06:55:42;1.37;;;0.80;;
32485;SDS011;18935;52.236;21.134;2022-07-29T06:58:07;1.20;;;0.65;;
32485;SDS011;18935;52.236;21.134;2022-07-29T07:00:34;2.05;;;1.05;;
32485;SDS011;18935;52.236;21.134;2022-07-29T07:02:59;1.88;;;0.98;;
32485;SDS011;18935;52.236;21.134;2022-07-29T07:05:24;2.13;;;0.53;;
32485;SDS011;18935;52.236;21.134;2022-07-29T07:07:50;3.65;;;0.85;;
32485;SDS011;18935;52.236;21.134;2022-07-29T07:10:15;2.47;;;0.90;;
32485;SDS011;18935;52.236;21.134;2022-07-29T07:12:40;3.05;;;0.90;;
32485;SDS011;18935;52.236;21.134;2022-07-29T07:15:06;4.30;;;1.00;;
32485;SDS011;18935;52.236;21.134;2022-07-29T07:17:31;3.53;;;1.52;;
32485;SDS011;18935;52.236;21.134;2022-07-29T07:19:57;2.15;;;0.90;;
32485;SDS011;18935;52.236;21.134;2022-07-29T07:22:22;2.07;;;1.00;;
32485;SDS011;18935;52.236;21.134;2022-07-29T07:24:47;1.33;;;0.60;;
32485;SDS011;18935;52.236;21.134;2022-07-29T07:27:13;1.70;;;0.90;;
32485;SDS011;18935;52.236;21.134;2022-07-29T07:29:38;2.40;;;0.80;;
32485;SDS011;18935;52.236;21.134;2022-07-29T07:32:06;2.35;;;0.73;;
32485;SDS011;18935;52.236;21.134;2022-07-29T07:34:31;2.25;;;1.00;;
32485;SDS011;18935;52.236;21.134;2022-07-29T07:36:57;2.22;;;1.00;;
32485;SDS011;18935;52.236;21.134;2022-07-29T07:39:22;2.40;;;0.87;;
32485;SDS011;18935;52.236;21.134;2022-07-29T07:41:47;1.77;;;0.80;;
32485;SDS011;18935;52.236;21.134;2022-07-29T07:44:12;4.13;;;1.00;;
32485;SDS011;18935;52.236;21.134;2022-07-29T07:46:47;2.83;;;0.90;;
32485;SDS011;18935;52.236;21.134;2022-07-29T07:49:15;2.25;;;1.08;;
32485;SDS011;18935;52.236;21.134;2022-07-29T07:51:40;3.00;;;0.80;;
32485;SDS011;18935;52.236;21.134;2022-07-29T07:54:05;1.50;;;0.90;;
32485;SDS011;18935;52.236;21.134;2022-07-29T07:56:31;4.30;;;0.97;;
32485;SDS011;18935;52.236;21.134;2022-07-29T07:58:56;2.93;;;1.10;;
32485;SDS011;18935;52.236;21.134;2022-07-29T08:01:21;5.97;;;1.17;;
32485;SDS011;18935;52.236;21.134;2022-07-29T08:03:48;3.33;;;0.93;;
32485;SDS011;18935;52.236;21.134;2022-07-29T08:06:15;2.78;;;1.15;;
32485;SDS011;18935;52.236;21.134;2022-07-29T08:08:40;2.00;;;1.05;;
32485;SDS011;18935;52.236;21.134;2022-07-29T08:11:05;4.00;;;1.03;;
32485;SDS011;18935;52.236;21.134;2022-07-29T08:13:31;2.33;;;0.90;;
32485;SDS011;18935;52.236;21.134;2022-07-29T08:15:57;3.05;;;0.90;;
32485;SDS011;18935;52.236;21.134;2022-07-29T08:18:28;8.90;;;1.10;;
32485;SDS011;18935;52.236;21.134;2022-07-29T08:20:56;3.20;;;1.02;;
32485;SDS011;18935;52.236;21.134;2022-07-29T08:23:21;3.35;;;0.88;;
32485;SDS011;18935;52.236;21.134;2022-07-29T08:25:48;2.63;;;1.00;;
32485;SDS011;18935;52.236;21.134;2022-07-29T08:28:17;2.10;;;0.90;;
32485;SDS011;18935;52.236;21.134;2022-07-29T08:30:43;3.70;;;1.10;;
32485;SDS011;18935;52.236;21.134;2022-07-29T08:33:08;6.55;;;1.20;;
32485;SDS011;18935;52.236;21.134;2022-07-29T08:35:33;2.87;;;0.90;;
32485;SDS011;18935;52.236;21.134;2022-07-29T08:37:59;3.63;;;1.05;;
32485;SDS011;18935;52.236;21.134;2022-07-29T08:40:24;5.27;;;1.03;;
32485;SDS011;18935;52.236;21.134;2022-07-29T08:42:50;5.10;;;1.30;;
32485;SDS011;18935;52.236;21.134;2022-07-29T08:45:18;3.45;;;1.10;;
32485;SDS011;18935;52.236;21.134;2022-07-29T08:47:45;3.13;;;1.00;;
32485;SDS011;18935;52.236;21.134;2022-07-29T08:50:11;5.83;;;1.17;;
32485;SDS011;18935;52.236;21.134;2022-07-29T08:52:37;2.42;;;0.90;;
32485;SDS011;18935;52.236;21.134;2022-07-29T08:55:05;5.30;;;1.00;;
32485;SDS011;18935;52.236;21.134;2022-07-29T08:57:31;5.20;;;1.40;;
32485;SDS011;18935;52.236;21.134;2022-07-29T08:59:58;4.45;;;1.35;;
32485;SDS011;18935;52.236;21.134;2022-07-29T09:02:25;3.83;;;1.23;;
32485;SDS011;18935;52.236;21.134;2022-07-29T09:04:54;2.90;;;1.00;;
32485;SDS011;18935;52.236;21.134;2022-07-29T09:07:21;3.83;;;1.00;;
32485;SDS011;18935;52.236;21.134;2022-07-29T09:09:46;1.40;;;0.60;;
32485;SDS011;18935;52.236;21.134;2022-07-29T09:12:12;4.43;;;1.15;;
32485;SDS011;18935;52.236;21.134;2022-07-29T09:14:38;5.25;;;1.35;;
32485;SDS011;18935;52.236;21.134;2022-07-29T09:17:04;3.42;;;1.00;;
32485;SDS011;18935;52.236;21.134;2022-07-29T09:19:30;4.10;;;0.98;;
32485;SDS011;18935;52.236;21.134;2022-07-29T09:21:59;4.45;;;0.93;;
32485;SDS011;18935;52.236;21.134;2022-07-29T09:24:35;4.57;;;1.15;;
32485;SDS011;18935;52.236;21.134;2022-07-29T09:29:42;4.72;;;1.38;;
32485;SDS011;18935;52.236;21.134;2022-07-29T09:32:08;5.50;;;1.08;;
32485;SDS011;18935;52.236;21.134;2022-07-29T09:34:35;4.63;;;1.25;;
32485;SDS011;18935;52.236;21.134;2022-07-29T09:37:00;2.58;;;1.10;;
32485;SDS011;18935;52.236;21.134;2022-07-29T09:39:34;2.67;;;1.02;;
32485;SDS011;18935;52.236;21.134;2022-07-29T09:42:04;3.67;;;1.40;;
32485;SDS011;18935;52.236;21.134;2022-07-29T09:44:49;3.65;;;1.02;;
32485;SDS011;18935;52.236;21.134;2022-07-29T09:47:15;1.90;;;0.77;;
32485;SDS011;18935;52.236;21.134;2022-07-29T09:52:16;4.03;;;1.25;;
32485;SDS011;18935;52.236;21.134;2022-07-29T09:54:42;5.80;;;1.17;;
32485;SDS011;18935;52.236;21.134;2022-07-29T09:57:08;3.70;;;1.15;;
32485;SDS011;18935;52.236;21.134;2022-07-29T09:59:37;5.88;;;1.08;;
32485;SDS011;18935;52.236;21.134;2022-07-29T10:02:10;2.78;;;1.30;;
32485;SDS011;18935;52.236;21.134;2022-07-29T10:04:38;2.53;;;0.90;;
32485;SDS011;18935;52.236;21.134;2022-07-29T10:07:04;1.77;;;0.88;;
32485;SDS011;18935;52.236;21.134;2022-07-29T10:09:30;3.92;;;1.10;;
32485;SDS011;18935;52.236;21.134;2022-07-29T10:12:03;2.53;;;1.10;;
32485;SDS011;18935;52.236;21.134;2022-07-29T10:14:39;4.43;;;1.00;;
32485;SDS011;18935;52.236;21.134;2022-07-29T10:17:07;6.45;;;1.20;;
32485;SDS011;18935;52.236;21.134;2022-07-29T10:19:34;2.88;;;1.10;;
32485;SDS011;18935;52.236;21.134;2022-07-29T10:22:01;3.47;;;1.10;;
32485;SDS011;18935;52.236;21.134;2022-07-29T10:24:31;3.15;;;0.88;;
32485;SDS011;18935;52.236;21.134;2022-07-29T10:26:57;3.80;;;1.10;;
32485;SDS011;18935;52.236;21.134;2022-07-29T10:29:24;1.63;;;1.00;;
32485;SDS011;18935;52.236;21.134;2022-07-29T10:37:33;3.72;;;0.90;;
32485;SDS011;18935;52.236;21.134;2022-07-29T10:40:15;4.22;;;1.10;;
32485;SDS011;18935;52.236;21.134;2022-07-29T10:43:14;2.35;;;0.70;;
32485;SDS011;18935;52.236;21.134;2022-07-29T10:45:45;0.98;;;0.80;;
32485;SDS011;18935;52.236;21.134;2022-07-29T10:48:12;2.60;;;0.85;;
32485;SDS011;18935;52.236;21.134;2022-07-29T10:53:48;5.10;;;1.00;;
32485;SDS011;18935;52.236;21.134;2022-07-29T10:56:28;1.40;;;0.85;;
32485;SDS011;18935;52.236;21.134;2022-07-29T11:01:48;4.22;;;0.90;;
32485;SDS011;18935;52.236;21.134;2022-07-29T11:04:15;4.65;;;1.20;;
32485;SDS011;18935;52.236;21.134;2022-07-29T11:09:29;5.23;;;1.10;;
32485;SDS011;18935;52.236;21.134;2022-07-29T11:11:58;4.25;;;0.90;;
32485;SDS011;18935;52.236;21.134;2022-07-29T11:17:18;1.17;;;0.70;;
32485;SDS011;18935;52.236;21.134;2022-07-29T11:19:44;5.43;;;1.20;;
32485;SDS011;18935;52.236;21.134;2022-07-29T11:22:10;3.88;;;1.45;;
32485;SDS011;18935;52.236;21.134;2022-07-29T11:24:36;2.58;;;1.30;;
32485;SDS011;18935;52.236;21.134;2022-07-29T11:27:19;2.60;;;1.10;;
32485;SDS011;18935;52.236;21.134;2022-07-29T11:29:48;2.30;;;1.00;;
32485;SDS011;18935;52.236;21.134;2022-07-29T11:32:22;2.22;;;1.20;;
32485;SDS011;18935;52.236;21.134;2022-07-29T11:34:49;2.58;;;1.08;;
32485;SDS011;18935;52.236;21.134;2022-07-29T11:37:34;3.95;;;1.17;;
32485;SDS011;18935;52.236;21.134;2022-07-29T11:45:03;3.77;;;1.13;;
32485;SDS011;18935;52.236;21.134;2022-07-29T11:47:42;4.80;;;1.00;;
32485;SDS011;18935;52.236;21.134;2022-07-29T11:50:17;4.60;;;1.08;;
32485;SDS011;18935;52.236;21.134;2022-07-29T11:53:10;7.18;;;1.10;;
32485;SDS011;18935;52.236;21.134;2022-07-29T11:55:37;2.55;;;0.80;;
32485;SDS011;18935;52.236;21.134;2022-07-29T11:58:04;4.55;;;1.30;;
32485;SDS011;18935;52.236;21.134;2022-07-29T12:03:06;4.03;;;1.15;;
32485;SDS011;18935;52.236;21.134;2022-07-29T12:05:37;3.70;;;0.80;;
32485;SDS011;18935;52.236;21.134;2022-07-29T12:08:05;2.03;;;0.95;;
32485;SDS011;18935;52.236;21.134;2022-07-29T12:10:32;5.53;;;1.20;;
32485;SDS011;18935;52.236;21.134;2022-07-29T12:12:57;2.80;;;1.00;;
32485;SDS011;18935;52.236;21.134;2022-07-29T12:15:23;4.77;;;1.00;;
32485;SDS011;18935;52.236;21.134;2022-07-29T12:17:49;1.98;;;0.90;;
32485;SDS011;18935;52.236;21.134;2022-07-29T12:20:21;4.22;;;0.90;;
32485;SDS011;18935;52.236;21.134;2022-07-29T12:22:51;3.60;;;1.08;;
32485;SDS011;18935;52.236;21.134;2022-07-29T12:25:20;5.50;;;1.10;;
32485;SDS011;18935;52.236;21.134;2022-07-29T12:28:02;7.43;;;1.13;;
32485;SDS011;18935;52.236;21.134;2022-07-29T12:33:09;2.90;;;0.90;;
32485;SDS011;18935;52.236;21.134;2022-07-29T12:35:36;3.05;;;1.00;;
32485;SDS011;18935;52.236;21.134;2022-07-29T12:38:01;5.82;;;1.00;;
32485;SDS011;18935;52.236;21.134;2022-07-29T12:40:27;1.98;;;0.90;;
32485;SDS011;18935;52.236;21.134;2022-07-29T12:45:41;4.90;;;1.15;;
32485;SDS011;18935;52.236;21.134;2022-07-29T12:48:09;2.30;;;0.70;;
32485;SDS011;18935;52.236;21.134;2022-07-29T12:50:35;3.10;;;0.75;;
32485;SDS011;18935;52.236;21.134;2022-07-29T12:53:09;2.63;;;1.30;;
32485;SDS011;18935;52.236;21.134;2022-07-29T12:55:41;6.53;;;1.10;;
32485;SDS011;18935;52.236;21.134;2022-07-29T12:58:36;3.95;;;1.00;;
32485;SDS011;18935;52.236;21.134;2022-07-29T13:01:05;2.75;;;0.93;;
32485;SDS011;18935;52.236;21.134;2022-07-29T13:06:27;3.25;;;0.90;;
32485;SDS011;18935;52.236;21.134;2022-07-29T13:08:59;6.82;;;0.90;;
32485;SDS011;18935;52.236;21.134;2022-07-29T13:11:29;4.38;;;1.10;;
32485;SDS011;18935;52.236;21.134;2022-07-29T13:14:02;1.75;;;0.80;;
32485;SDS011;18935;52.236;21.134;2022-07-29T13:16:29;2.47;;;1.00;;
32485;SDS011;18935;52.236;21.134;2022-07-29T13:19:07;2.10;;;1.02;;
32485;SDS011;18935;52.236;21.134;2022-07-29T13:21:35;2.08;;;0.80;;
32485;SDS011;18935;52.236;21.134;2022-07-29T13:24:01;5.47;;;1.15;;
32485;SDS011;18935;52.236;21.134;2022-07-29T13:26:26;2.05;;;0.90;;
32485;SDS011;18935;52.236;21.134;2022-07-29T13:28:52;2.67;;;1.00;;
32485;SDS011;18935;52.236;21.134;2022-07-29T13:31:20;1.50;;;0.80;;
32485;SDS011;18935;52.236;21.134;2022-07-29T13:33:46;2.83;;;0.88;;
32485;SDS011;18935;52.236;21.134;2022-07-29T13:36:12;1.25;;;0.80;;
32485;SDS011;18935;52.236;21.134;2022-07-29T13:38:38;3.63;;;0.80;;
32485;SDS011;18935;52.236;21.134;2022-07-29T13:41:03;5.75;;;1.20;;
32485;SDS011;18935;52.236;21.134;2022-07-29T13:43:28;3.53;;;1.08;;
32485;SDS011;18935;52.236;21.134;2022-07-29T13:45:54;3.67;;;1.00;;
32485;SDS011;18935;52.236;21.134;2022-07-29T13:48:19;3.85;;;1.00;;
32485;SDS011;18935;52.236;21.134;2022-07-29T13:50:45;5.35;;;1.10;;
32485;SDS011;18935;52.236;21.134;2022-07-29T13:53:11;2.88;;;1.20;;
32485;SDS011;18935;52.236;21.134;2022-07-29T13:55:36;2.40;;;0.80;;
32485;SDS011;18935;52.236;21.134;2022-07-29T13:58:02;1.13;;;0.90;;
32485;SDS011;18935;52.236;21.134;2022-07-29T14:00:27;1.83;;;0.90;;
32485;SDS011;18935;52.236;21.134;2022-07-29T14:02:53;3.55;;;1.20;;
32485;SDS011;18935;52.236;21.134;2022-07-29T14:05:18;6.38;;;1.42;;
32485;SDS011;18935;52.236;21.134;2022-07-29T14:07:44;1.92;;;0.90;;
32485;SDS011;18935;52.236;21.134;2022-07-29T14:10:09;1.87;;;0.80;;
32485;SDS011;18935;52.236;21.134;2022-07-29T14:12:35;3.55;;;0.93;;
32485;SDS011;18935;52.236;21.134;2022-07-29T14:15:00;3.95;;;1.00;;
32485;SDS011;18935;52.236;21.134;2022-07-29T14:17:25;6.35;;;0.98;;
32485;SDS011;18935;52.236;21.134;2022-07-29T14:19:51;1.60;;;0.83;;
32485;SDS011;18935;52.236;21.134;2022-07-29T14:22:16;3.20;;;1.00;;
32485;SDS011;18935;52.236;21.134;2022-07-29T14:24:43;4.60;;;0.93;;
32485;SDS011;18935;52.236;21.134;2022-07-29T14:27:09;2.38;;;1.10;;
32485;SDS011;18935;52.236;21.134;2022-07-29T14:29:34;2.30;;;0.90;;
32485;SDS011;18935;52.236;21.134;2022-07-29T14:32:00;10.32;;;1.10;;
32485;SDS011;18935;52.236;21.134;2022-07-29T14:34:26;3.72;;;0.75;;
32485;SDS011;18935;52.236;21.134;2022-07-29T14:36:54;4.55;;;1.38;;
32485;SDS011;18935;52.236;21.134;2022-07-29T14:39:20;2.22;;;1.10;;
32485;SDS011;18935;52.236;21.134;2022-07-29T14:41:48;1.25;;;0.80;;
32485;SDS011;18935;52.236;21.134;2022-07-29T14:44:14;2.10;;;0.98;;
32485;SDS011;18935;52.236;21.134;2022-07-29T14:46:39;5.28;;;1.20;;
32485;SDS011;18935;52.236;21.134;2022-07-29T14:49:05;3.78;;;1.00;;
32485;SDS011;18935;52.236;21.134;2022-07-29T14:51:30;4.88;;;1.20;;
32485;SDS011;18935;52.236;21.134;2022-07-29T14:53:56;4.38;;;0.98;;
32485;SDS011;18935;52.236;21.134;2022-07-29T14:56:21;1.30;;;0.70;;
32485;SDS011;18935;52.236;21.134;2022-07-29T14:58:47;2.63;;;1.02;;
32485;SDS011;18935;52.236;21.134;2022-07-29T15:01:13;2.78;;;1.00;;
32485;SDS011;18935;52.236;21.134;2022-07-29T15:03:42;5.07;;;1.20;;
32485;SDS011;18935;52.236;21.134;2022-07-29T15:06:07;3.60;;;0.93;;
32485;SDS011;18935;52.236;21.134;2022-07-29T15:08:32;6.93;;;0.98;;
32485;SDS011;18935;52.236;21.134;2022-07-29T15:10:58;3.13;;;0.80;;
32485;SDS011;18935;52.236;21.134;2022-07-29T15:13:24;4.85;;;1.08;;
32485;SDS011;18935;52.236;21.134;2022-07-29T15:15:50;2.10;;;0.80;;
32485;SDS011;18935;52.236;21.134;2022-07-29T15:18:15;4.07;;;0.98;;
32485;SDS011;18935;52.236;21.134;2022-07-29T15:20:41;6.07;;;1.02;;
32485;SDS011;18935;52.236;21.134;2022-07-29T15:23:06;3.63;;;1.20;;
32485;SDS011;18935;52.236;21.134;2022-07-29T15:25:34;2.00;;;1.10;;
32485;SDS011;18935;52.236;21.134;2022-07-29T15:28:01;3.55;;;1.48;;
32485;SDS011;18935;52.236;21.134;2022-07-29T15:30:29;4.00;;;1.20;;